Time;durP1;ratioP1;P1;durP2;ratioP2;P2;SDS_P1;SDS_P2;PMS_P1;PMS_P2;Temp;Humidity;BMP_temperature;BMP_pressure;BME280_temperature;BME280_humidity;BME280_pressure;Samples;Min_cycle;Max_cycle;Signal;HPM_P1;HPM_P2
2022/05/16 00:01:50;;;;;;;14.60;7.40;;;13.50;99.90;;;;;;5068714;28;20040;-60
2022/05/16 00:04:17;;;;;;;16.40;7.85;;;13.40;99.90;;;;;;5048651;28;20216;-59
2022/05/16 00:06:43;;;;;;;15.65;6.82;;;13.40;99.90;;;;;;5085297;28;20162;-59
2022/05/16 00:09:09;;;;;;;17.52;7.13;;;13.40;99.90;;;;;;5073815;28;20176;-59
2022/05/16 00:11:36;;;;;;;13.80;6.97;;;13.40;99.90;;;;;;5049000;28;20115;-59
2022/05/16 00:14:02;;;;;;;13.48;6.85;;;13.30;99.90;;;;;;5046492;28;20057;-61
2022/05/16 00:16:28;;;;;;;12.18;6.22;;;13.40;99.90;;;;;;5078689;28;20108;-52
2022/05/16 00:18:54;;;;;;;13.57;6.88;;;13.30;99.90;;;;;;5061549;28;20047;-49
2022/05/16 00:21:21;;;;;;;14.80;6.75;;;13.30;99.90;;;;;;5083778;28;20500;-51
2022/05/16 00:23:47;;;;;;;15.93;7.13;;;13.30;99.90;;;;;;5054209;28;20056;-52
2022/05/16 00:26:13;;;;;;;12.27;7.00;;;13.30;99.90;;;;;;5058795;28;20463;-51
2022/05/16 00:28:39;;;;;;;13.68;7.05;;;13.30;99.90;;;;;;5065600;28;20080;-60
2022/05/16 00:31:06;;;;;;;14.57;8.23;;;13.30;99.90;;;;;;5071917;28;20152;-60
2022/05/16 00:33:32;;;;;;;13.57;7.30;;;13.30;99.90;;;;;;5045979;28;20524;-60
2022/05/16 00:35:59;;;;;;;13.80;7.15;;;13.20;99.90;;;;;;5075299;28;20048;-60
2022/05/16 00:38:25;;;;;;;10.98;7.35;;;13.20;99.90;;;;;;5059588;28;20580;-60
2022/05/16 00:40:52;;;;;;;13.43;7.55;;;13.20;99.90;;;;;;5066724;28;20083;-60
2022/05/16 00:43:41;;;;;;;11.55;6.88;;;13.20;99.90;;;;;;5072994;28;20129;-60
2022/05/16 00:46:07;;;;;;;13.82;7.00;;;13.20;99.90;;;;;;5090112;28;20062;-60
2022/05/16 00:48:34;;;;;;;11.90;6.55;;;13.10;99.90;;;;;;5093264;28;20185;-60
2022/05/16 00:51:01;;;;;;;11.38;7.00;;;13.10;99.90;;;;;;5055831;28;20040;-60
2022/05/16 00:53:27;;;;;;;11.55;6.55;;;13.10;99.90;;;;;;5091510;28;20051;-51
2022/05/16 00:55:55;;;;;;;10.30;6.13;;;13.10;99.90;;;;;;5075853;28;20070;-54
2022/05/16 00:58:22;;;;;;;12.27;6.80;;;13.00;99.90;;;;;;5077606;28;20109;-49
2022/05/16 01:00:48;;;;;;;12.18;6.10;;;13.10;99.90;;;;;;5082420;28;20048;-48
2022/05/16 01:06:07;;;;;;;10.93;6.05;;;13.10;99.90;;;;;;5058455;28;20112;-49
2022/05/16 01:08:35;;;;;;;17.15;7.60;;;13.10;99.90;;;;;;5089617;28;20151;-50
2022/05/16 01:11:05;;;;;;;11.77;6.13;;;13.00;99.90;;;;;;5073679;28;20134;-53
2022/05/16 01:13:32;;;;;;;12.05;5.97;;;13.10;99.90;;;;;;5083617;28;20488;-50
2022/05/16 01:15:59;;;;;;;11.75;5.45;;;13.10;99.90;;;;;;5072732;28;20133;-50
2022/05/16 01:18:26;;;;;;;12.65;6.53;;;13.10;99.90;;;;;;5073646;28;20098;-50
2022/05/16 01:21:05;;;;;;;11.07;5.65;;;13.10;99.90;;;;;;5073767;28;20051;-50
2022/05/16 01:23:38;;;;;;;14.35;5.72;;;13.10;99.90;;;;;;5070620;28;20048;-50
2022/05/16 01:26:10;;;;;;;12.85;5.70;;;13.10;99.90;;;;;;5060875;28;20048;-52
2022/05/16 01:28:36;;;;;;;16.42;6.07;;;13.10;99.90;;;;;;5071050;28;20121;-52
2022/05/16 01:31:02;;;;;;;12.25;5.72;;;13.10;99.90;;;;;;5064784;28;20076;-60
2022/05/16 01:33:28;;;;;;;8.10;5.18;;;13.10;99.90;;;;;;5065694;28;20098;-53
2022/05/16 01:35:54;;;;;;;12.70;5.55;;;13.10;99.90;;;;;;5085570;28;20472;-48
2022/05/16 01:38:23;;;;;;;14.23;5.88;;;13.10;99.90;;;;;;5077677;28;20127;-60
2022/05/16 01:40:56;;;;;;;10.13;5.03;;;13.10;99.90;;;;;;5074168;28;20052;-59
2022/05/16 01:43:25;;;;;;;10.85;5.07;;;13.10;99.90;;;;;;5071386;28;20503;-59
2022/05/16 01:45:51;;;;;;;10.50;4.93;;;13.10;99.90;;;;;;5070195;28;20068;-51
2022/05/16 01:48:19;;;;;;;9.23;4.60;;;13.10;99.90;;;;;;5056471;28;20056;-50
2022/05/16 01:50:48;;;;;;;10.25;4.78;;;13.10;99.90;;;;;;5073521;28;20063;-51
2022/05/16 01:53:15;;;;;;;8.73;4.47;;;13.10;99.90;;;;;;5084535;28;20120;-50
2022/05/16 01:55:41;;;;;;;10.10;5.45;;;13.10;99.90;;;;;;5091795;28;20044;-49
2022/05/16 01:58:08;;;;;;;10.70;5.10;;;13.10;99.90;;;;;;5066293;28;20044;-50
2022/05/16 02:00:36;;;;;;;12.23;5.00;;;13.10;99.90;;;;;;5045690;28;20099;-50
2022/05/16 02:03:05;;;;;;;10.55;4.90;;;13.10;99.90;;;;;;5082065;28;20052;-52
2022/05/16 02:05:31;;;;;;;15.48;4.78;;;13.00;99.90;;;;;;5074878;28;20048;-49
2022/05/16 02:07:57;;;;;;;9.23;4.65;;;13.10;99.90;;;;;;5082744;28;20056;-49
2022/05/16 02:10:25;;;;;;;12.38;5.03;;;13.00;99.90;;;;;;5081195;28;20043;-48
2022/05/16 02:12:53;;;;;;;10.52;4.70;;;13.10;99.90;;;;;;5071827;28;20555;-56
2022/05/16 02:15:22;;;;;;;10.68;4.30;;;13.00;99.90;;;;;;5070056;28;20053;-51
2022/05/16 02:17:49;;;;;;;12.02;5.10;;;13.10;99.90;;;;;;5065505;28;20935;-51
2022/05/16 02:20:16;;;;;;;11.32;4.50;;;13.00;99.90;;;;;;5067862;28;20830;-49
2022/05/16 02:25:27;;;;;;;8.98;4.22;;;13.10;99.90;;;;;;5067431;28;20057;-47
2022/05/16 02:27:54;;;;;;;9.60;3.90;;;13.10;99.90;;;;;;5067746;28;20075;-59
2022/05/16 02:30:22;;;;;;;11.25;4.20;;;13.10;99.90;;;;;;5053150;28;20076;-59
2022/05/16 02:32:49;;;;;;;10.43;4.57;;;13.10;99.90;;;;;;5057229;28;20040;-59
2022/05/16 02:35:15;;;;;;;11.02;3.75;;;13.10;99.90;;;;;;5068615;28;20182;-59
2022/05/16 02:37:42;;;;;;;8.32;3.70;;;13.00;99.90;;;;;;5087893;28;20050;-58
2022/05/16 02:40:09;;;;;;;9.40;3.78;;;13.00;99.90;;;;;;5073255;28;20044;-59
2022/05/16 02:42:35;;;;;;;10.88;4.40;;;13.00;99.90;;;;;;5084014;28;20499;-59
2022/05/16 02:45:03;;;;;;;12.05;4.10;;;13.00;99.90;;;;;;5046048;28;20052;-59
2022/05/16 02:47:29;;;;;;;7.75;3.70;;;13.00;99.90;;;;;;5083436;28;20047;-59
2022/05/16 02:49:55;;;;;;;10.00;4.25;;;13.00;99.90;;;;;;5088088;28;20040;-48
2022/05/16 02:52:21;;;;;;;13.70;3.83;;;13.00;99.90;;;;;;5064274;28;20040;-59
2022/05/16 02:54:47;;;;;;;9.93;4.50;;;13.00;99.90;;;;;;5051758;28;20059;-51
2022/05/16 02:57:13;;;;;;;11.43;3.88;;;13.00;99.90;;;;;;5027582;28;20048;-49
2022/05/16 02:59:40;;;;;;;7.88;4.00;;;13.00;99.90;;;;;;5081373;28;20045;-51
2022/05/16 03:02:08;;;;;;;10.95;4.18;;;13.00;99.90;;;;;;5078623;28;20552;-59
2022/05/16 03:04:35;;;;;;;10.00;3.72;;;13.00;99.90;;;;;;5062918;28;20060;-50
2022/05/16 03:07:01;;;;;;;12.07;4.13;;;12.90;99.90;;;;;;5068977;28;20048;-54
2022/05/16 03:09:28;;;;;;;10.18;4.90;;;12.90;99.90;;;;;;5065792;28;20138;-59
2022/05/16 03:11:55;;;;;;;13.88;4.40;;;12.90;99.90;;;;;;5066008;28;20071;-49
2022/05/16 03:14:23;;;;;;;7.53;3.80;;;12.90;99.90;;;;;;5074049;28;20063;-52
2022/05/16 03:16:49;;;;;;;10.02;3.90;;;12.90;99.90;;;;;;5094294;28;20050;-50
2022/05/16 03:19:15;;;;;;;11.95;3.65;;;12.90;99.90;;;;;;5080916;28;20043;-59
2022/05/16 03:21:42;;;;;;;9.02;3.63;;;12.80;99.90;;;;;;5048295;28;20056;-52
2022/05/16 03:24:09;;;;;;;9.05;4.00;;;12.80;99.90;;;;;;5079907;28;20079;-59
2022/05/16 03:26:36;;;;;;;9.30;4.50;;;12.80;99.90;;;;;;5077064;28;20059;-59
2022/05/16 03:29:02;;;;;;;10.85;3.88;;;12.80;99.90;;;;;;5078613;28;20616;-59
2022/05/16 03:31:29;;;;;;;7.57;3.45;;;12.80;99.90;;;;;;5033784;28;20552;-59
2022/05/16 03:33:55;;;;;;;8.52;4.03;;;12.70;99.90;;;;;;5080149;28;20052;-59
2022/05/16 03:36:21;;;;;;;6.45;3.42;;;12.70;99.90;;;;;;5067225;28;20047;-59
2022/05/16 03:41:31;;;;;;;6.30;3.33;;;12.70;99.90;;;;;;5065821;28;20133;-59
2022/05/16 03:43:57;;;;;;;10.20;5.15;;;12.60;99.90;;;;;;5060254;28;20052;-59
2022/05/16 03:46:24;;;;;;;8.02;3.83;;;12.60;99.90;;;;;;5049185;28;20436;-59
2022/05/16 03:48:50;;;;;;;10.40;3.85;;;12.60;99.90;;;;;;5076961;28;20046;-60
2022/05/16 03:51:16;;;;;;;9.88;3.60;;;12.60;99.90;;;;;;5077349;28;20048;-49
2022/05/16 03:53:46;;;;;;;9.85;3.95;;;12.70;99.90;;;;;;5077318;28;20082;-50
2022/05/16 03:56:17;;;;;;;8.75;3.80;;;12.60;99.90;;;;;;5066346;28;20051;-59
2022/05/16 03:58:43;;;;;;;11.32;4.45;;;12.70;99.90;;;;;;5063348;28;20058;-59
2022/05/16 04:01:11;;;;;;;10.20;3.90;;;12.70;99.90;;;;;;5065475;28;20051;-59
2022/05/16 04:03:37;;;;;;;10.27;4.28;;;12.70;99.90;;;;;;5092375;28;20063;-59
2022/05/16 04:06:04;;;;;;;10.85;3.85;;;12.70;99.90;;;;;;5046484;28;20536;-60
2022/05/16 04:08:31;;;;;;;10.32;3.70;;;12.70;99.90;;;;;;5084451;28;20055;-59
2022/05/16 04:10:59;;;;;;;10.63;3.95;;;12.70;99.90;;;;;;5088380;28;20055;-59
2022/05/16 04:13:26;;;;;;;8.30;3.33;;;12.70;99.90;;;;;;5066393;28;20684;-60
2022/05/16 04:15:53;;;;;;;8.65;3.78;;;12.70;99.90;;;;;;5046667;28;20075;-60
2022/05/16 04:18:19;;;;;;;11.50;3.80;;;12.70;99.90;;;;;;5047452;28;20049;-59
2022/05/16 04:20:46;;;;;;;7.65;3.33;;;12.80;99.90;;;;;;5075328;28;20056;-59
2022/05/16 04:23:13;;;;;;;8.98;3.75;;;12.70;99.90;;;;;;5093188;28;20563;-58
2022/05/16 04:25:39;;;;;;;12.20;3.60;;;12.80;99.90;;;;;;5048596;28;20054;-60
2022/05/16 04:28:07;;;;;;;9.38;4.18;;;12.80;99.90;;;;;;5076652;28;20544;-49
2022/05/16 04:30:33;;;;;;;8.52;4.05;;;12.80;99.90;;;;;;5071622;28;20056;-59
2022/05/16 04:32:59;;;;;;;9.55;3.97;;;12.80;99.90;;;;;;5041195;28;20672;-59
2022/05/16 04:35:25;;;;;;;8.20;3.40;;;12.80;99.90;;;;;;5056437;28;20642;-50
2022/05/16 04:37:52;;;;;;;5.72;4.10;;;12.80;99.90;;;;;;5070512;28;20881;-59
2022/05/16 04:40:19;;;;;;;10.82;3.90;;;12.80;99.90;;;;;;5071900;28;20568;-59
2022/05/16 04:42:45;;;;;;;8.77;3.67;;;12.90;99.90;;;;;;5084267;28;20044;-59
2022/05/16 04:45:14;;;;;;;8.63;3.47;;;12.80;99.90;;;;;;5067894;28;20143;-59
2022/05/16 04:47:40;;;;;;;9.73;3.63;;;12.90;99.90;;;;;;5081925;28;20545;-59
2022/05/16 04:50:07;;;;;;;8.02;4.05;;;12.90;99.90;;;;;;5042489;28;20151;-59
2022/05/16 04:52:34;;;;;;;10.77;3.55;;;12.90;99.90;;;;;;5083437;28;20089;-59
2022/05/16 04:55:00;;;;;;;12.05;3.42;;;12.90;99.90;;;;;;5080585;28;20047;-59
2022/05/16 04:57:26;;;;;;;7.45;3.45;;;12.90;99.90;;;;;;5064113;28;20660;-59
2022/05/16 04:59:53;;;;;;;9.05;3.90;;;12.90;99.90;;;;;;5081344;28;20052;-59
2022/05/16 05:02:19;;;;;;;8.27;3.35;;;13.00;99.90;;;;;;5061420;28;20048;-59
2022/05/16 05:04:45;;;;;;;10.68;3.75;;;13.10;99.90;;;;;;5091190;28;20053;-50
2022/05/16 05:07:12;;;;;;;9.50;3.67;;;13.20;99.90;;;;;;5060687;28;20071;-52
2022/05/16 05:15:11;;;;;;;6.20;3.20;;;13.90;99.90;;;;;;5057623;28;20880;-50
2022/05/16 05:17:37;;;;;;;7.65;3.78;;;14.20;99.90;;;;;;5083865;28;20055;-52
2022/05/16 05:20:04;;;;;;;8.25;3.80;;;14.40;99.90;;;;;;5059652;28;20140;-52
2022/05/16 05:22:30;;;;;;;10.15;3.80;;;14.40;99.90;;;;;;5042168;28;20051;-52
2022/05/16 05:24:56;;;;;;;9.07;3.47;;;14.40;99.90;;;;;;5065550;28;20097;-51
2022/05/16 05:27:22;;;;;;;7.25;3.50;;;14.50;99.90;;;;;;5060666;28;20044;-51
2022/05/16 05:29:51;;;;;;;9.35;3.42;;;14.60;99.90;;;;;;5064603;28;20911;-59
2022/05/16 05:32:17;;;;;;;7.75;3.13;;;14.90;99.90;;;;;;5029780;28;20139;-59
2022/05/16 05:34:43;;;;;;;8.82;3.15;;;15.20;99.90;;;;;;5076675;28;20057;-51
2022/05/16 05:37:09;;;;;;;7.55;3.22;;;15.40;99.90;;;;;;5044915;28;20448;-58
2022/05/16 05:39:35;;;;;;;11.55;4.15;;;15.40;99.90;;;;;;5047156;28;20459;-58
2022/05/16 05:42:02;;;;;;;8.63;3.30;;;15.20;99.90;;;;;;5056326;28;20049;-59
2022/05/16 05:44:28;;;;;;;7.78;3.35;;;15.40;99.90;;;;;;5066627;28;20069;-58
2022/05/16 05:46:54;;;;;;;8.30;3.85;;;15.60;99.90;;;;;;5064695;28;20135;-50
2022/05/16 05:49:22;;;;;;;9.55;3.45;;;16.00;99.90;;;;;;5065140;28;20090;-46
2022/05/16 05:51:48;;;;;;;8.70;3.60;;;16.00;99.90;;;;;;5065626;28;20071;-47
2022/05/16 05:54:14;;;;;;;8.50;4.25;;;16.20;99.90;;;;;;5057409;28;20079;-52
2022/05/16 05:56:40;;;;;;;8.38;3.42;;;16.00;99.90;;;;;;5046043;28;20044;-53
2022/05/16 05:59:06;;;;;;;8.27;3.40;;;16.00;99.90;;;;;;5080900;28;20432;-51
2022/05/16 06:01:32;;;;;;;10.75;4.03;;;15.90;99.90;;;;;;5046134;28;20045;-49
2022/05/16 06:03:58;;;;;;;7.40;3.15;;;15.80;99.90;;;;;;5064450;28;20052;-59
2022/05/16 06:06:28;;;;;;;11.00;3.65;;;15.80;99.90;;;;;;5080450;28;20043;-59
2022/05/16 06:08:54;;;;;;;8.05;3.40;;;15.90;99.90;;;;;;5045625;28;20849;-59
2022/05/16 06:11:21;;;;;;;6.20;3.58;;;16.00;99.90;;;;;;5060198;28;20124;-59
2022/05/16 06:13:47;;;;;;;10.68;3.58;;;16.00;99.90;;;;;;5064443;28;20548;-59
2022/05/16 06:16:13;;;;;;;8.65;3.45;;;16.10;99.90;;;;;;5062117;28;20052;-59
2022/05/16 06:18:40;;;;;;;8.13;3.50;;;16.30;99.90;;;;;;5068924;28;20044;-59
2022/05/16 06:21:06;;;;;;;9.85;3.30;;;16.50;99.90;;;;;;5045394;28;20045;-59
2022/05/16 06:23:32;;;;;;;9.80;3.10;;;16.70;99.90;;;;;;5052637;28;20052;-59
2022/05/16 06:25:59;;;;;;;14.18;3.30;;;16.90;99.90;;;;;;5042964;28;20055;-59
2022/05/16 06:28:28;;;;;;;9.13;3.75;;;17.00;99.90;;;;;;5061248;28;20535;-60
2022/05/16 06:30:56;;;;;;;7.28;3.58;;;17.20;99.90;;;;;;5073405;28;20244;-59
2022/05/16 06:33:28;;;;;;;9.23;3.20;;;17.50;99.90;;;;;;5064815;28;20056;-59
2022/05/16 06:35:55;;;;;;;9.73;3.25;;;17.60;99.90;;;;;;5067634;28;20047;-59
2022/05/16 06:38:27;;;;;;;8.55;3.28;;;17.80;99.90;;;;;;5062654;28;20052;-59
2022/05/16 06:40:55;;;;;;;5.68;2.78;;;18.10;99.90;;;;;;5075874;28;20829;-59
2022/05/16 06:43:23;;;;;;;8.88;3.55;;;18.30;99.90;;;;;;5079996;28;20083;-58
2022/05/16 06:45:50;;;;;;;8.13;3.38;;;18.50;99.90;;;;;;5049797;28;20063;-60
2022/05/16 06:48:17;;;;;;;7.18;3.00;;;18.80;99.90;;;;;;5045367;28;20060;-54
2022/05/16 06:50:45;;;;;;;9.40;3.30;;;19.00;99.90;;;;;;5045698;28;20049;-51
2022/05/16 06:53:20;;;;;;;9.27;3.45;;;19.10;99.90;;;;;;5049305;28;20854;-53
2022/05/16 06:55:46;;;;;;;9.43;3.17;;;19.20;99.90;;;;;;5082441;28;20040;-54
2022/05/16 06:58:12;;;;;;;9.18;3.05;;;19.50;99.90;;;;;;5056197;28;20056;-50
2022/05/16 07:00:39;;;;;;;7.88;3.60;;;19.70;99.90;;;;;;5026151;28;20036;-51
2022/05/16 07:03:06;;;;;;;8.40;2.95;;;19.90;99.90;;;;;;5055716;28;20058;-58
2022/05/16 07:05:32;;;;;;;10.65;3.50;;;19.90;99.90;;;;;;5062955;28;20056;-58
2022/05/16 07:07:59;;;;;;;8.18;3.08;;;19.90;99.90;;;;;;5064215;28;20048;-58
2022/05/16 07:10:26;;;;;;;17.05;6.72;;;20.10;99.90;;;;;;5047800;28;20055;-58
2022/05/16 07:12:52;;;;;;;13.63;5.53;;;20.40;99.90;;;;;;5047250;28;20059;-59
2022/05/16 07:15:20;;;;;;;8.05;3.58;;;20.80;99.90;;;;;;5064583;28;20059;-59
2022/05/16 07:17:47;;;;;;;7.40;2.80;;;21.00;99.90;;;;;;5082835;28;20075;-59
2022/05/16 07:20:14;;;;;;;9.63;3.33;;;21.30;99.90;;;;;;5083354;28;20047;-59
2022/05/16 07:22:42;;;;;;;18.17;12.20;;;21.40;99.90;;;;;;5048534;28;20128;-59
2022/05/16 07:25:09;;;;;;;10.02;3.60;;;21.50;99.90;;;;;;5064647;28;20055;-59
2022/05/16 07:30:20;;;;;;;7.95;3.20;;;21.50;99.70;;;;;;5083738;28;20051;-59
2022/05/16 07:32:46;;;;;;;7.63;3.03;;;21.30;99.90;;;;;;5065513;28;20084;-60
2022/05/16 07:35:19;;;;;;;9.07;3.25;;;21.60;99.90;;;;;;5047141;28;20048;-59
2022/05/16 07:37:45;;;;;;;8.65;3.17;;;21.70;99.90;;;;;;5072725;28;20047;-59
2022/05/16 07:40:13;;;;;;;8.75;2.80;;;21.90;99.10;;;;;;5086549;28;20051;-59
2022/05/16 07:42:39;;;;;;;7.10;2.88;;;22.10;97.80;;;;;;5052476;28;20048;-59
2022/05/16 07:45:08;;;;;;;7.13;3.17;;;22.40;99.70;;;;;;5086543;28;20055;-61
2022/05/16 07:47:34;;;;;;;6.95;2.92;;;22.30;97.10;;;;;;5085888;28;20408;-59
2022/05/16 07:50:01;;;;;;;7.18;2.50;;;22.20;98.90;;;;;;5051683;28;20511;-60
2022/05/16 07:52:29;;;;;;;10.85;6.97;;;22.60;99.10;;;;;;5087039;28;20048;-53
2022/05/16 07:54:55;;;;;;;7.50;2.45;;;22.70;97.70;;;;;;5087016;28;20114;-54
2022/05/16 07:57:22;;;;;;;9.93;3.58;;;23.10;97.40;;;;;;5068059;28;20476;-52
2022/05/16 07:59:49;;;;;;;6.60;2.70;;;23.30;97.20;;;;;;5085880;28;20075;-52
2022/05/16 08:02:15;;;;;;;10.55;4.35;;;23.40;98.10;;;;;;5067017;28;20119;-48
2022/05/16 08:04:41;;;;;;;9.05;3.20;;;23.20;96.80;;;;;;5088814;28;20087;-50
2022/05/16 08:07:08;;;;;;;9.98;3.63;;;23.30;94.70;;;;;;5087305;28;20089;-59
2022/05/16 08:12:28;;;;;;;7.15;3.05;;;23.40;90.60;;;;;;5087323;28;20150;-52
2022/05/16 08:14:54;;;;;;;8.98;2.92;;;23.50;91.00;;;;;;5050581;28;20132;-49
2022/05/16 08:17:21;;;;;;;10.82;3.25;;;23.50;90.60;;;;;;5067616;28;20105;-48
2022/05/16 08:19:47;;;;;;;8.73;3.20;;;23.80;92.90;;;;;;5089737;28;20119;-52
2022/05/16 08:22:14;;;;;;;9.05;2.90;;;23.80;92.90;;;;;;5059831;28;20766;-48
2022/05/16 08:24:40;;;;;;;8.18;2.65;;;23.80;94.20;;;;;;5092754;28;20074;-50
2022/05/16 08:27:07;;;;;;;8.23;2.60;;;23.90;92.30;;;;;;5053644;28;20063;-50
2022/05/16 08:29:33;;;;;;;8.95;2.90;;;24.00;91.40;;;;;;5085000;28;20056;-48
2022/05/16 08:32:01;;;;;;;8.77;2.90;;;24.30;93.20;;;;;;5085653;28;20511;-50
2022/05/16 08:34:28;;;;;;;8.52;2.70;;;24.60;91.50;;;;;;5067375;28;20458;-47
2022/05/16 08:39:55;;;;;;;11.45;3.28;;;24.70;88.70;;;;;;5077559;28;20052;-47
2022/05/16 08:42:50;;;;;;;8.30;3.75;;;24.90;90.20;;;;;;5065730;28;20048;-59
2022/05/16 08:45:37;;;;;;;6.72;2.70;;;25.00;77.60;;;;;;5069953;28;20086;-59
2022/05/16 08:48:28;;;;;;;7.60;2.72;;;25.10;81.00;;;;;;5078209;28;20063;-60
2022/05/16 08:51:04;;;;;;;7.20;2.55;;;25.40;77.90;;;;;;5083946;28;20119;-60
2022/05/16 08:53:39;;;;;;;8.32;2.97;;;25.50;86.90;;;;;;5049023;28;20044;-60
2022/05/16 08:56:10;;;;;;;7.35;2.47;;;25.60;79.30;;;;;;5099825;28;20096;-49
2022/05/16 08:58:49;;;;;;;9.55;2.85;;;25.80;86.10;;;;;;5092692;28;20101;-48
2022/05/16 09:01:22;;;;;;;8.35;2.90;;;25.60;77.80;;;;;;5087012;28;20055;-48
2022/05/16 09:03:53;;;;;;;9.13;3.58;;;25.70;71.60;;;;;;5096493;28;20485;-45
2022/05/16 09:06:47;;;;;;;6.82;3.03;;;25.50;74.50;;;;;;5066213;28;20051;-45
2022/05/16 09:09:18;;;;;;;5.93;2.55;;;25.90;71.70;;;;;;5099479;28;20576;-47
2022/05/16 09:11:53;;;;;;;5.63;2.70;;;25.80;72.10;;;;;;5075628;28;20492;-50
2022/05/16 09:14:28;;;;;;;8.63;2.75;;;25.90;76.40;;;;;;5084395;28;20040;-59
2022/05/16 09:17:22;;;;;;;7.13;2.58;;;26.30;73.50;;;;;;5084438;28;20554;-56
2022/05/16 09:20:04;;;;;;;11.88;2.78;;;26.50;67.90;;;;;;5070389;28;20048;-58
2022/05/16 09:22:33;;;;;;;10.48;4.05;;;26.70;65.10;;;;;;5033244;28;20042;-58
2022/05/16 09:25:03;;;;;;;11.07;3.78;;;27.20;65.10;;;;;;5065825;28;20048;-58
2022/05/16 09:30:23;;;;;;;11.02;4.13;;;27.30;61.20;;;;;;5081967;28;20130;-58
2022/05/16 09:32:55;;;;;;;8.70;3.00;;;27.80;58.80;;;;;;5066235;28;20070;-49
2022/05/16 09:35:50;;;;;;;11.30;2.92;;;27.60;59.10;;;;;;5050674;28;20048;-50
2022/05/16 09:38:18;;;;;;;10.20;4.22;;;27.50;58.40;;;;;;5065934;28;20152;-50
2022/05/16 09:41:00;;;;;;;13.77;5.78;;;27.30;58.20;;;;;;5071390;28;20040;-50
2022/05/16 09:43:58;;;;;;;10.82;5.13;;;27.20;60.60;;;;;;5086259;28;20052;-50
2022/05/16 09:46:34;;;;;;;9.85;4.50;;;27.50;61.20;;;;;;5057539;28;20051;-46
2022/05/16 09:49:20;;;;;;;12.13;7.68;;;27.60;55.50;;;;;;5098406;28;20058;-46
2022/05/16 09:51:51;;;;;;;8.55;3.47;;;28.30;58.90;;;;;;5086255;28;20100;-48
2022/05/16 09:54:28;;;;;;;9.25;3.55;;;28.40;53.50;;;;;;5086095;28;20139;-56
2022/05/16 09:56:56;;;;;;;10.68;6.25;;;28.80;52.60;;;;;;5085606;28;20040;-56
2022/05/16 09:59:42;;;;;;;9.13;4.45;;;28.70;51.00;;;;;;5083422;28;20055;-56
2022/05/16 10:02:28;;;;;;;11.38;3.75;;;29.00;49.40;;;;;;5080518;28;20990;-53
2022/05/16 10:04:58;;;;;;;11.38;4.30;;;28.80;50.80;;;;;;5085438;28;20169;-56
2022/05/16 10:07:43;;;;;;;7.75;3.03;;;28.80;51.60;;;;;;5095600;28;20051;-48
2022/05/16 10:10:26;;;;;;;10.43;4.35;;;28.70;50.80;;;;;;5064402;28;20519;-51
2022/05/16 10:12:53;;;;;;;24.65;21.25;;;28.60;50.60;;;;;;5083363;28;20561;-46
2022/05/16 10:15:21;;;;;;;13.15;7.30;;;28.60;52.60;;;;;;5093774;28;20050;-49
2022/05/16 10:17:49;;;;;;;11.68;5.03;;;28.30;51.90;;;;;;5082955;28;20048;-47
2022/05/16 10:20:46;;;;;;;7.50;3.58;;;28.50;50.80;;;;;;5065444;28;20565;-52
2022/05/16 10:23:35;;;;;;;8.23;3.30;;;28.60;51.00;;;;;;5047924;28;20456;-45
2022/05/16 10:26:14;;;;;;;10.93;5.85;;;29.40;51.00;;;;;;5034185;28;20127;-49
2022/05/16 10:28:52;;;;;;;28.55;8.57;;;29.60;53.00;;;;;;5058643;28;20052;-50
2022/05/16 10:34:18;;;;;;;8.68;2.97;;;29.40;48.00;;;;;;5079884;28;20077;-48
2022/05/16 10:36:54;;;;;;;9.52;3.35;;;29.40;48.00;;;;;;5081735;28;20043;-52
2022/05/16 10:39:26;;;;;;;10.55;3.20;;;29.10;48.60;;;;;;5064837;28;20051;-57
2022/05/16 10:42:14;;;;;;;7.38;2.92;;;28.90;47.90;;;;;;5082745;28;20080;-57
2022/05/16 10:45:00;;;;;;;11.05;4.78;;;28.50;49.80;;;;;;5064434;28;20747;-56
2022/05/16 10:47:29;;;;;;;9.45;4.03;;;28.50;50.80;;;;;;5093359;28;20059;-56
2022/05/16 10:50:20;;;;;;;8.05;3.80;;;28.20;51.80;;;;;;5063489;28;20073;-57
2022/05/16 10:52:59;;;;;;;9.23;3.10;;;28.00;54.00;;;;;;5069609;28;20063;-58
2022/05/16 10:55:31;;;;;;;14.73;10.57;;;27.70;57.90;;;;;;5082244;28;20052;-57
2022/05/16 10:58:06;;;;;;;8.15;3.95;;;27.50;58.40;;;;;;5081638;28;20553;-52
2022/05/16 11:00:40;;;;;;;10.50;5.97;;;27.20;58.20;;;;;;5099865;28;20101;-57
2022/05/16 11:03:32;;;;;;;11.82;5.07;;;27.00;58.90;;;;;;5084018;28;20043;-52
2022/05/16 11:06:17;;;;;;;19.80;17.20;;;26.70;66.00;;;;;;5085524;28;20044;-50
2022/05/16 11:09:10;;;;;;;12.30;6.85;;;26.50;76.90;;;;;;5092938;28;20047;-47
2022/05/16 11:11:56;;;;;;;11.90;5.05;;;26.20;73.40;;;;;;5083995;28;20705;-52
2022/05/16 11:15:03;;;;;;;10.30;3.85;;;25.80;92.70;;;;;;5068113;28;20048;-46
2022/05/16 11:18:00;;;;;;;14.40;6.35;;;25.60;94.20;;;;;;5056168;28;20047;-55
2022/05/16 11:20:51;;;;;;;15.65;7.28;;;25.50;95.20;;;;;;5068248;28;20055;-58
2022/05/16 11:23:24;;;;;;;66.97;59.88;;;25.50;98.70;;;;;;5092156;28;20054;-58
2022/05/16 11:26:02;;;;;;;10.15;4.88;;;25.50;96.80;;;;;;5086090;28;20218;-59
2022/05/16 11:28:32;;;;;;;11.23;5.45;;;25.40;99.70;;;;;;5086292;28;20052;-57
2022/05/16 11:31:13;;;;;;;32.42;29.00;;;25.30;97.20;;;;;;5081840;28;20043;-59
2022/05/16 11:33:53;;;;;;;16.25;6.88;;;25.30;97.90;;;;;;5098851;28;20181;-57
2022/05/16 11:36:47;;;;;;;9.90;3.60;;;25.20;97.50;;;;;;5036522;28;20043;-57
2022/05/16 11:39:24;;;;;;;13.25;5.53;;;25.30;95.30;;;;;;5049244;28;20063;-57
2022/05/16 11:42:01;;;;;;;8.52;4.40;;;25.30;97.60;;;;;;5067850;28;20083;-57
2022/05/16 11:44:41;;;;;;;11.60;4.30;;;25.30;99.20;;;;;;5105761;28;20051;-57
2022/05/16 11:47:35;;;;;;;11.55;5.55;;;25.30;97.10;;;;;;5094438;28;20050;-56
2022/05/16 11:50:09;;;;;;;10.10;5.22;;;25.20;98.20;;;;;;5076923;28;20044;-48
2022/05/16 11:53:15;;;;;;;9.18;4.28;;;25.20;98.60;;;;;;5066853;28;20590;-48
2022/05/16 12:01:36;;;;;;;9.25;4.25;;;25.60;99.90;;;;;;5100507;28;20082;-57
2022/05/16 12:04:22;;;;;;;8.88;4.03;;;25.60;97.90;;;;;;5100118;28;20108;-56
2022/05/16 12:06:53;;;;;;;10.88;5.22;;;25.60;99.40;;;;;;5086979;28;20047;-56
2022/05/16 12:09:51;;;;;;;9.02;4.30;;;25.60;98.60;;;;;;5068276;28;20062;-56
2022/05/16 12:12:37;;;;;;;11.68;4.30;;;25.50;95.90;;;;;;5022964;28;20051;-56
2022/05/16 12:15:27;;;;;;;9.07;5.22;;;25.60;99.00;;;;;;5098664;28;20109;-57
2022/05/16 12:17:59;;;;;;;9.27;2.88;;;25.60;97.60;;;;;;5103440;28;20126;-52
2022/05/16 12:20:44;;;;;;;11.63;5.75;;;25.60;98.30;;;;;;5065551;28;20103;-47
2022/05/16 12:23:13;;;;;;;10.18;3.08;;;25.60;97.90;;;;;;5075691;28;20048;-46
2022/05/16 12:25:41;;;;;;;8.80;3.05;;;25.80;99.00;;;;;;5072280;28;20060;-46
2022/05/16 12:28:13;;;;;;;5.13;2.58;;;25.80;98.30;;;;;;5067423;28;20060;-46
2022/05/16 12:30:48;;;;;;;9.10;3.22;;;25.80;99.90;;;;;;5067048;28;20047;-50
2022/05/16 12:33:48;;;;;;;7.85;2.85;;;25.90;98.50;;;;;;5052290;28;20048;-48
2022/05/16 12:36:23;;;;;;;9.35;3.08;;;26.10;98.60;;;;;;5087801;28;20052;-59
2022/05/16 12:39:08;;;;;;;11.38;3.40;;;26.40;98.10;;;;;;5084652;28;20044;-47
2022/05/16 12:42:19;;;;;;;7.43;2.78;;;26.50;97.30;;;;;;5056439;28;20154;-49
2022/05/16 12:44:57;;;;;;;14.82;4.25;;;26.80;97.90;;;;;;5078217;28;20401;-46
2022/05/16 12:48:01;;;;;;;9.23;4.20;;;27.00;96.30;;;;;;5091658;28;20055;-47
2022/05/16 12:50:51;;;;;;;8.50;3.17;;;26.90;94.80;;;;;;5089413;28;20047;-48
2022/05/16 12:53:23;;;;;;;8.00;3.10;;;26.90;96.20;;;;;;5084936;28;20495;-49
2022/05/16 12:56:07;;;;;;;7.30;2.80;;;26.80;96.10;;;;;;5079976;28;20125;-47
2022/05/16 12:58:36;;;;;;;6.78;3.10;;;26.60;96.90;;;;;;5056298;28;20050;-45
2022/05/16 13:01:21;;;;;;;8.18;3.80;;;26.40;96.20;;;;;;5089226;28;20040;-46
2022/05/16 13:04:17;;;;;;;10.48;3.90;;;26.20;96.70;;;;;;5048318;28;20048;-44
2022/05/16 13:06:52;;;;;;;7.70;3.15;;;26.00;98.00;;;;;;5065718;28;20156;-47
2022/05/16 13:09:40;;;;;;;7.53;3.22;;;25.90;97.50;;;;;;5089735;28;20048;-49
2022/05/16 13:12:12;;;;;;;7.68;3.60;;;25.80;98.70;;;;;;5086691;28;20444;-58
2022/05/16 13:14:56;;;;;;;7.03;3.28;;;25.70;99.70;;;;;;5078406;28;20126;-47
2022/05/16 13:17:44;;;;;;;7.50;3.30;;;25.60;99.90;;;;;;5070603;28;20048;-48
2022/05/16 13:20:24;;;;;;;6.85;3.50;;;25.60;99.80;;;;;;5088741;28;20282;-47
2022/05/16 13:22:51;;;;;;;6.63;3.10;;;25.60;99.90;;;;;;5086266;28;20046;-59
2022/05/16 13:25:19;;;;;;;7.18;3.05;;;25.60;99.90;;;;;;5095893;28;20815;-59
2022/05/16 13:30:43;;;;;;;8.15;3.80;;;25.90;99.90;;;;;;5096085;28;20051;-59
2022/05/16 13:33:35;;;;;;;10.10;4.13;;;25.90;98.70;;;;;;5052976;28;20482;-46
2022/05/16 13:36:18;;;;;;;7.15;4.38;;;26.10;97.70;;;;;;5098276;28;20779;-58
2022/05/16 13:38:46;;;;;;;11.25;5.50;;;26.00;98.50;;;;;;5087495;28;20784;-58
2022/05/16 13:41:12;;;;;;;15.52;5.55;;;26.30;97.80;;;;;;5094742;28;20051;-59
2022/05/16 13:43:39;;;;;;;8.45;5.30;;;26.40;98.00;;;;;;5103091;28;20059;-59